createdAt,value
2022-10-28T00:01:18.603Z,19.40
2022-10-28T00:03:50.911Z,19.40
2022-10-28T00:06:20.495Z,19.40
2022-10-28T00:08:47.396Z,19.30
2022-10-28T00:11:17.266Z,19.20
2022-10-28T00:13:45.603Z,19.20
2022-10-28T00:16:16.612Z,19.20
2022-10-28T00:18:44.041Z,19.20
2022-10-28T00:21:19.913Z,19.20
2022-10-28T00:23:46.785Z,19.20
2022-10-28T00:26:18.150Z,19.10
2022-10-28T00:28:50.086Z,19.00
2022-10-28T00:31:18.861Z,19.10
2022-10-28T00:33:46.480Z,19.00
2022-10-28T00:36:18.856Z,19.00
2022-10-28T00:38:47.041Z,19.00
2022-10-28T00:41:16.528Z,19.00
2022-10-28T00:43:51.709Z,18.90
2022-10-28T00:46:42.556Z,18.80
2022-10-28T00:49:26.107Z,18.80
2022-10-28T00:51:56.465Z,18.80
2022-10-28T00:54:23.787Z,18.80
2022-10-28T00:56:55.300Z,18.80
2022-10-28T00:59:26.957Z,18.70
2022-10-28T01:01:54.348Z,18.70
2022-10-28T01:04:23.577Z,18.70
2022-10-28T01:06:52.566Z,18.60
2022-10-28T01:09:19.562Z,18.60
2022-10-28T01:12:02.298Z,18.60
2022-10-28T01:15:00.134Z,18.60
2022-10-28T01:17:54.500Z,18.60
2022-10-28T01:20:41.668Z,18.60
2022-10-28T01:23:46.137Z,18.50
2022-10-28T01:26:55.767Z,18.50
2022-10-28T01:29:34.773Z,18.50
2022-10-28T01:32:26.167Z,18.40
2022-10-28T01:35:18.909Z,18.40
2022-10-28T01:37:55.554Z,18.40
2022-10-28T01:40:38.622Z,18.40
2022-10-28T01:43:26.497Z,18.40
2022-10-28T01:46:18.737Z,18.40
2022-10-28T01:48:53.964Z,18.30
2022-10-28T01:51:36.074Z,18.20
2022-10-28T01:54:06.216Z,18.20
2022-10-28T01:56:37.375Z,18.20
2022-10-28T01:59:07.871Z,18.20
2022-10-28T02:01:35.976Z,18.20
2022-10-28T02:04:03.730Z,18.30
2022-10-28T02:06:33.054Z,18.30
2022-10-28T02:09:20.636Z,18.10
2022-10-28T02:12:15.335Z,18.20
2022-10-28T02:14:54.577Z,18.10
2022-10-28T02:18:07.507Z,18.20
2022-10-28T02:20:34.559Z,18.00
2022-10-28T02:23:35.433Z,18.10
2022-10-28T02:26:27.749Z,18.10
2022-10-28T02:29:23.040Z,18.10
2022-10-28T02:31:54.859Z,18.20
2022-10-28T02:34:26.168Z,18.10
2022-10-28T02:36:57.921Z,18.10
2022-10-28T02:39:32.744Z,18.10
2022-10-28T02:42:25.941Z,17.80
2022-10-28T02:45:01.232Z,17.90
2022-10-28T02:47:33.215Z,17.90
2022-10-28T02:50:07.263Z,18.00
2022-10-28T02:52:35.467Z,18.00
2022-10-28T02:55:05.502Z,18.00
2022-10-28T02:57:44.769Z,18.00
2022-10-28T03:00:18.232Z,18.00
2022-10-28T03:02:45.153Z,18.00
2022-10-28T03:05:12.200Z,17.90
2022-10-28T03:07:39.184Z,17.90
2022-10-28T03:10:06.605Z,17.80
2022-10-28T03:12:33.333Z,17.90
2022-10-28T03:15:00.336Z,17.90
2022-10-28T03:17:27.600Z,18.00
2022-10-28T03:19:54.433Z,18.00
2022-10-28T03:22:21.469Z,17.90
2022-10-28T03:24:48.510Z,17.90
2022-10-28T03:27:15.591Z,18.00
2022-10-28T03:29:45.682Z,17.90
2022-10-28T03:32:13.334Z,17.90
2022-10-28T03:34:40.471Z,17.90
2022-10-28T03:37:07.468Z,17.80
2022-10-28T03:39:34.493Z,17.90
2022-10-28T03:42:01.694Z,17.80
2022-10-28T03:44:28.610Z,17.80
2022-10-28T03:46:55.657Z,17.80
2022-10-28T03:49:22.746Z,17.80
2022-10-28T03:51:49.762Z,17.80
2022-10-28T03:54:16.843Z,17.80
2022-10-28T03:56:43.882Z,17.80
2022-10-28T03:59:13.188Z,17.70
2022-10-28T04:01:42.119Z,17.70
2022-10-28T04:04:09.074Z,17.70
2022-10-28T04:06:36.109Z,17.80
2022-10-28T04:09:03.180Z,17.70
2022-10-28T04:11:29.874Z,17.80
2022-10-28T04:13:56.860Z,17.70
2022-10-28T04:16:23.904Z,17.70
2022-10-28T04:18:51.023Z,17.70
2022-10-28T04:21:18.228Z,17.70
2022-10-28T04:23:45.057Z,17.80
2022-10-28T04:26:19.199Z,17.80
2022-10-28T04:28:46.093Z,17.60
2022-10-28T04:31:12.752Z,17.60
2022-10-28T04:33:39.788Z,17.60
2022-10-28T04:36:07.076Z,17.50
2022-10-28T04:38:33.922Z,17.50
2022-10-28T04:41:00.699Z,17.50
2022-10-28T04:43:27.582Z,17.60
2022-10-28T04:45:54.653Z,17.60
2022-10-28T04:48:23.405Z,17.50
2022-10-28T04:50:50.968Z,17.60
2022-10-28T04:53:17.825Z,17.60
2022-10-28T04:55:45.364Z,17.50
2022-10-28T04:58:12.328Z,17.50
2022-10-28T05:00:38.991Z,17.50
2022-10-28T05:03:06.088Z,17.60
2022-10-28T05:05:35.128Z,17.50
2022-10-28T05:08:02.432Z,17.50
2022-10-28T05:10:30.317Z,17.50
2022-10-28T05:12:57.098Z,17.30
2022-10-28T05:15:26.397Z,17.40
2022-10-28T05:17:53.776Z,17.40
2022-10-28T05:20:20.916Z,17.50
2022-10-28T05:22:53.778Z,17.40
2022-10-28T05:25:22.001Z,17.50
2022-10-28T05:27:49.029Z,17.50
2022-10-28T05:30:16.425Z,17.60
2022-10-28T05:32:43.352Z,17.60
2022-10-28T05:35:10.999Z,17.60
2022-10-28T05:37:37.899Z,17.60
2022-10-28T05:40:05.165Z,17.50
2022-10-28T05:42:31.872Z,17.50
2022-10-28T05:44:58.515Z,17.50
2022-10-28T05:47:25.257Z,17.40
2022-10-28T05:49:52.223Z,17.40
2022-10-28T05:52:19.997Z,17.50
2022-10-28T05:54:46.729Z,17.40
2022-10-28T05:57:13.764Z,17.40
2022-10-28T05:59:40.824Z,17.30
2022-10-28T06:02:14.858Z,17.30
2022-10-28T06:04:42.163Z,17.50
2022-10-28T06:07:09.461Z,17.60
2022-10-28T06:09:40.520Z,17.60
2022-10-28T06:12:06.820Z,17.50
2022-10-28T06:14:33.662Z,17.40
2022-10-28T06:17:00.843Z,17.50
2022-10-28T06:19:27.744Z,17.50
2022-10-28T06:21:54.380Z,17.40
2022-10-28T06:24:21.073Z,17.50
2022-10-28T06:26:48.093Z,17.50
2022-10-28T06:29:15.162Z,17.40
2022-10-28T06:31:43.139Z,17.30
2022-10-28T06:34:11.094Z,17.40
2022-10-28T06:36:38.250Z,17.40
2022-10-28T06:39:05.415Z,17.50
2022-10-28T06:41:33.159Z,17.30
2022-10-28T06:44:00.064Z,17.40
2022-10-28T06:46:27.595Z,17.60
2022-10-28T06:48:56.092Z,17.70
2022-10-28T06:51:23.050Z,17.90
2022-10-28T06:53:51.289Z,17.80
2022-10-28T06:56:18.601Z,17.90
2022-10-28T06:58:50.706Z,17.80
2022-10-28T07:01:18.578Z,17.80
2022-10-28T07:03:46.588Z,17.70
2022-10-28T07:08:46.262Z,18.10
2022-10-28T07:11:14.015Z,18.20
2022-10-28T07:13:42.449Z,18.20
2022-10-28T07:16:11.119Z,18.20
2022-10-28T07:18:38.179Z,18.20
2022-10-28T07:21:05.348Z,18.30
2022-10-28T07:23:32.962Z,18.40
2022-10-28T07:25:59.741Z,18.40
2022-10-28T07:28:27.378Z,18.50
2022-10-28T07:30:54.538Z,18.60
2022-10-28T07:33:22.478Z,18.80
2022-10-28T07:35:50.362Z,18.70
2022-10-28T07:38:17.459Z,18.70
2022-10-28T07:40:44.522Z,18.90
2022-10-28T07:43:11.586Z,18.90
2022-10-28T07:45:38.619Z,19.00
2022-10-28T07:48:06.434Z,18.90
2022-10-28T07:50:33.540Z,19.00
2022-10-28T07:53:00.848Z,19.10
2022-10-28T07:55:28.164Z,19.00
2022-10-28T07:57:55.388Z,19.10
2022-10-28T08:00:22.515Z,19.10
2022-10-28T08:02:49.316Z,19.30
2022-10-28T08:05:16.246Z,19.30
2022-10-28T08:07:43.292Z,19.20
2022-10-28T08:10:11.091Z,19.20
2022-10-28T08:12:38.123Z,19.40
2022-10-28T08:15:05.610Z,19.50
2022-10-28T08:17:32.601Z,19.60
2022-10-28T08:19:59.632Z,19.40
2022-10-28T08:22:26.298Z,19.50
2022-10-28T08:24:53.318Z,19.40
2022-10-28T08:27:21.185Z,19.40
2022-10-28T08:29:47.831Z,19.40
2022-10-28T08:32:14.870Z,19.40
2022-10-28T08:34:43.613Z,19.20
2022-10-28T08:37:10.991Z,19.20
2022-10-28T08:39:38.899Z,19.30
2022-10-28T08:42:38.367Z,19.40
2022-10-28T08:45:17.644Z,19.50
2022-10-28T08:50:49.357Z,19.80
2022-10-28T08:53:42.486Z,20.00
2022-10-28T08:56:45.904Z,20.20
2022-10-28T08:59:17.663Z,20.30
2022-10-28T09:01:48.326Z,20.40
2022-10-28T09:04:44.091Z,20.50
2022-10-28T09:07:18.787Z,20.40
2022-10-28T09:09:47.193Z,20.60
2022-10-28T09:12:19.097Z,20.90
2022-10-28T09:15:18.036Z,21.20
2022-10-28T09:17:56.268Z,21.40
2022-10-28T09:20:36.031Z,21.60
2022-10-28T09:23:09.361Z,21.80
2022-10-28T09:25:54.358Z,22.30
2022-10-28T09:28:29.548Z,23.50
2022-10-28T09:30:59.071Z,24.40
2022-10-28T09:33:40.548Z,25.10
2022-10-28T09:36:19.162Z,25.90
2022-10-28T09:38:47.733Z,26.00
2022-10-28T09:41:20.776Z,26.10
2022-10-28T09:43:53.631Z,26.50
2022-10-28T09:46:22.089Z,27.00
2022-10-28T09:48:55.618Z,27.40
2022-10-28T09:51:44.978Z,28.20
2022-10-28T09:54:13.311Z,29.00
2022-10-28T09:56:40.652Z,29.50
2022-10-28T09:59:11.580Z,29.80
2022-10-28T10:01:40.906Z,29.20
2022-10-28T10:04:26.040Z,28.30
2022-10-28T10:07:02.426Z,27.50
2022-10-28T10:09:32.399Z,27.00
2022-10-28T10:12:12.592Z,27.10
2022-10-28T10:14:49.540Z,28.40
2022-10-28T10:17:20.207Z,27.90
2022-10-28T10:20:02.804Z,27.00
2022-10-28T10:22:36.600Z,26.50
2022-10-28T10:25:20.206Z,26.90
2022-10-28T10:28:01.851Z,26.80
2022-10-28T10:30:28.491Z,26.40
2022-10-28T10:32:56.637Z,27.30
2022-10-28T10:35:36.871Z,28.00
2022-10-28T10:38:06.492Z,28.10
2022-10-28T10:40:48.342Z,28.10
2022-10-28T10:43:15.164Z,28.40
2022-10-28T10:45:53.625Z,28.40
2022-10-28T10:48:20.498Z,28.00
2022-10-28T10:50:48.906Z,27.60
2022-10-28T10:53:26.108Z,27.20
2022-10-28T10:56:15.624Z,26.40
2022-10-28T10:58:54.699Z,26.10
2022-10-28T11:01:32.623Z,26.40
2022-10-28T11:04:04.699Z,26.80
2022-10-28T11:06:35.919Z,26.80
2022-10-28T11:09:18.052Z,26.50
2022-10-28T11:11:45.187Z,26.70
2022-10-28T11:14:14.603Z,26.80
2022-10-28T11:16:50.322Z,26.70
2022-10-28T11:19:29.394Z,26.90
2022-10-28T11:22:21.839Z,26.90
2022-10-28T11:25:00.745Z,27.30
2022-10-28T11:27:48.597Z,27.60
2022-10-28T11:30:27.040Z,27.70
2022-10-28T11:33:28.915Z,28.00
2022-10-28T11:36:03.080Z,28.30
2022-10-28T11:38:43.263Z,28.40
2022-10-28T11:41:30.760Z,28.30
2022-10-28T11:44:04.806Z,27.90
2022-10-28T11:47:04.022Z,28.10
2022-10-28T11:49:50.563Z,27.60
2022-10-28T11:52:26.910Z,26.70
2022-10-28T11:55:02.437Z,26.30
2022-10-28T11:57:54.414Z,25.80
2022-10-28T12:00:36.952Z,25.50
2022-10-28T12:03:42.752Z,25.50
2022-10-28T12:06:20.612Z,25.60
2022-10-28T12:08:50.405Z,25.50
2022-10-28T12:11:23.379Z,25.20
2022-10-28T12:13:58.959Z,25.20
2022-10-28T12:16:48.107Z,25.80
2022-10-28T12:19:19.811Z,26.00
2022-10-28T12:21:53.259Z,26.40
2022-10-28T12:24:23.907Z,26.80
2022-10-28T12:27:05.708Z,26.70
2022-10-28T12:29:40.656Z,26.60
2022-10-28T12:32:12.296Z,26.40
2022-10-28T12:34:45.504Z,26.20
2022-10-28T12:37:46.191Z,26.30
2022-10-28T12:40:37.208Z,26.60
2022-10-28T12:43:34.394Z,26.80
2022-10-28T12:46:02.255Z,26.30
2022-10-28T12:48:35.233Z,26.30
2022-10-28T12:51:19.584Z,26.90
2022-10-28T12:53:58.371Z,26.60
2022-10-28T12:56:31.632Z,27.00
2022-10-28T12:59:06.754Z,27.10
2022-10-28T13:01:35.335Z,27.80
2022-10-28T13:04:02.557Z,27.60
2022-10-28T13:06:48.606Z,27.30
2022-10-28T13:09:42.625Z,27.10
2022-10-28T13:12:34.602Z,27.30
2022-10-28T13:15:10.567Z,27.10
2022-10-28T13:18:05.540Z,27.00
2022-10-28T13:20:59.455Z,26.40
2022-10-28T13:23:42.376Z,26.00
2022-10-28T13:26:24.172Z,25.60
2022-10-28T13:28:55.004Z,25.70
2022-10-28T13:31:22.490Z,26.00
2022-10-28T13:34:00.331Z,26.20
2022-10-28T13:36:31.368Z,26.60
2022-10-28T13:39:01.515Z,26.80
2022-10-28T13:41:37.347Z,26.90
2022-10-28T13:44:20.579Z,26.90
2022-10-28T13:47:01.216Z,26.60
2022-10-28T13:49:33.302Z,26.80
2022-10-28T13:52:03.602Z,27.20
2022-10-28T13:54:53.670Z,26.90
2022-10-28T13:57:36.447Z,26.40
2022-10-28T14:00:24.031Z,26.00
2022-10-28T14:02:55.757Z,25.90
2022-10-28T14:05:45.898Z,25.60
2022-10-28T14:08:28.415Z,25.10
2022-10-28T14:11:23.036Z,25.00
2022-10-28T14:13:53.799Z,24.90
2022-10-28T14:16:31.748Z,25.00
2022-10-28T14:19:25.306Z,24.90
2022-10-28T14:22:03.340Z,24.60
2022-10-28T14:24:36.471Z,24.40
2022-10-28T14:27:06.564Z,24.40
2022-10-28T14:29:56.719Z,24.20
2022-10-28T14:32:34.793Z,24.10
2022-10-28T14:35:10.328Z,24.10
2022-10-28T14:37:55.219Z,24.10
2022-10-28T14:40:40.903Z,24.00
2022-10-28T14:43:18.734Z,23.80
2022-10-28T14:46:01.891Z,23.60
2022-10-28T14:48:45.203Z,23.60
2022-10-28T14:51:19.561Z,23.40
2022-10-28T14:53:47.340Z,23.20
2022-10-28T14:58:50.909Z,23.20
2022-10-28T15:01:17.717Z,23.10
2022-10-28T15:03:47.321Z,23.20
2022-10-28T15:06:41.725Z,23.00
2022-10-28T15:09:25.136Z,23.00
2022-10-28T15:12:10.952Z,22.80
2022-10-28T15:14:47.410Z,22.80
2022-10-28T15:17:20.798Z,22.60
2022-10-28T15:19:59.244Z,22.50
2022-10-28T15:22:31.114Z,22.40
2022-10-28T15:25:00.054Z,22.40
2022-10-28T15:27:32.028Z,22.50
2022-10-28T15:29:59.091Z,22.50
2022-10-28T15:32:28.328Z,22.50
2022-10-28T15:34:55.680Z,22.60
2022-10-28T15:37:28.804Z,22.50
2022-10-28T15:40:26.619Z,22.40
2022-10-28T15:43:00.719Z,22.40
2022-10-28T15:45:30.604Z,22.40
2022-10-28T15:47:59.411Z,22.40
2022-10-28T15:50:35.012Z,22.40
2022-10-28T15:53:11.115Z,22.40
2022-10-28T15:56:07.005Z,22.30
2022-10-28T15:58:58.680Z,22.30
2022-10-28T16:01:34.957Z,22.20
2022-10-28T16:04:01.791Z,22.10
2022-10-28T16:06:36.848Z,22.10
2022-10-28T16:09:06.891Z,22.00
2022-10-28T16:11:39.213Z,21.90
2022-10-28T16:14:33.087Z,21.80
2022-10-28T16:17:07.374Z,21.70
2022-10-28T16:19:39.329Z,21.80
2022-10-28T16:22:10.932Z,21.60
2022-10-28T16:24:37.953Z,21.50
2022-10-28T16:27:27.311Z,21.40
2022-10-28T16:29:54.199Z,21.30
2022-10-28T16:32:35.431Z,21.10
2022-10-28T16:35:03.526Z,21.10
2022-10-28T16:37:32.580Z,21.00
2022-10-28T16:39:59.796Z,20.90
2022-10-28T16:42:27.109Z,20.90
2022-10-28T16:44:54.117Z,20.80
2022-10-28T16:47:25.583Z,20.70
2022-10-28T16:49:57.126Z,20.80
2022-10-28T16:52:27.589Z,20.70
2022-10-28T16:54:54.995Z,20.60
2022-10-28T16:59:54.776Z,20.60
2022-10-28T17:02:36.026Z,20.70
2022-10-28T17:05:07.426Z,20.70
2022-10-28T17:07:34.335Z,20.50
2022-10-28T17:10:00.963Z,20.40
2022-10-28T17:12:28.019Z,20.30
2022-10-28T17:14:54.807Z,20.20
2022-10-28T17:17:23.021Z,20.30
2022-10-28T17:19:50.131Z,20.20
2022-10-28T17:22:17.142Z,20.30
2022-10-28T17:24:44.219Z,20.10
2022-10-28T17:27:11.162Z,20.10
2022-10-28T17:29:38.785Z,20.10
2022-10-28T17:32:08.615Z,20.30
2022-10-28T17:34:36.048Z,20.40
2022-10-28T17:37:03.353Z,20.50
2022-10-28T17:39:30.341Z,20.40
2022-10-28T17:41:57.228Z,20.50
2022-10-28T17:44:24.632Z,20.40
2022-10-28T17:46:51.974Z,20.20
2022-10-28T17:49:19.131Z,20.10
2022-10-28T17:51:46.187Z,19.90
2022-10-28T17:54:13.539Z,20.00
2022-10-28T17:56:41.953Z,20.00
2022-10-28T17:59:08.961Z,19.90
2022-10-28T18:01:36.494Z,19.80
2022-10-28T18:04:04.575Z,19.80
2022-10-28T18:06:31.624Z,19.60
2022-10-28T18:08:58.576Z,19.70
2022-10-28T18:11:27.259Z,19.80
2022-10-28T18:13:55.894Z,19.80
2022-10-28T18:16:27.474Z,19.80
2022-10-28T18:18:55.504Z,19.70
2022-10-28T18:21:23.073Z,19.80
2022-10-28T18:23:53.797Z,19.90
2022-10-28T18:26:21.005Z,20.00
2022-10-28T18:28:49.063Z,19.90
2022-10-28T18:31:18.724Z,19.90
2022-10-28T18:33:46.555Z,19.60
2022-10-28T18:36:15.765Z,19.50
2022-10-28T18:38:43.015Z,19.50
2022-10-28T18:41:11.682Z,19.30
2022-10-28T18:43:40.791Z,19.20
2022-10-28T18:46:08.512Z,19.20
2022-10-28T18:48:35.895Z,19.10
2022-10-28T18:51:06.753Z,18.90
2022-10-28T18:53:37.896Z,18.80
2022-10-28T18:56:06.428Z,18.80
2022-10-28T18:58:33.744Z,18.80
2022-10-28T19:01:11.848Z,18.80
2022-10-28T19:03:39.756Z,18.80
2022-10-28T19:06:16.979Z,18.90
2022-10-28T19:08:44.337Z,18.90
2022-10-28T19:11:13.433Z,18.90
2022-10-28T19:13:41.562Z,18.80
2022-10-28T19:16:09.163Z,18.80
2022-10-28T19:18:38.135Z,18.80
2022-10-28T19:21:08.421Z,18.80
2022-10-28T19:23:35.406Z,18.60
2022-10-28T19:26:04.040Z,18.50
2022-10-28T19:28:36.692Z,18.50
2022-10-28T19:31:05.263Z,18.50
2022-10-28T19:33:32.825Z,18.50
2022-10-28T19:36:26.980Z,18.60
2022-10-28T19:38:54.514Z,18.60
2022-10-28T19:41:27.059Z,18.60
2022-10-28T19:43:58.976Z,18.40
2022-10-28T19:46:27.382Z,18.30
2022-10-28T19:48:59.263Z,18.30
2022-10-28T19:51:28.705Z,18.40
2022-10-28T19:53:59.795Z,18.30
2022-10-28T19:56:27.996Z,18.30
2022-10-28T19:58:59.695Z,18.30
2022-10-28T20:01:29.396Z,18.10
2022-10-28T20:03:57.066Z,18.00
2022-10-28T20:06:33.258Z,17.80
2022-10-28T20:09:00.559Z,17.60
2022-10-28T20:11:31.727Z,17.70
2022-10-28T20:14:01.777Z,17.90
2022-10-28T20:16:30.404Z,18.10
2022-10-28T20:18:59.021Z,18.40
2022-10-28T20:21:28.585Z,18.50
2022-10-28T20:23:56.223Z,18.60
2022-10-28T20:26:27.949Z,18.50
2022-10-28T20:28:59.399Z,18.20
2022-10-28T20:31:29.456Z,18.00
2022-10-28T20:34:00.595Z,18.00
2022-10-28T20:36:42.199Z,18.10
2022-10-28T20:39:16.899Z,18.00
2022-10-28T20:41:45.586Z,17.80
2022-10-28T20:44:12.610Z,17.80
2022-10-28T20:46:39.608Z,17.80
2022-10-28T20:49:08.690Z,17.90
2022-10-28T20:51:36.843Z,18.00
2022-10-28T20:54:03.954Z,18.10
2022-10-28T20:56:34.157Z,17.90
2022-10-28T20:59:01.275Z,17.80
2022-10-28T21:01:30.739Z,17.80
2022-10-28T21:04:01.291Z,18.00
2022-10-28T21:06:28.745Z,18.00
2022-10-28T21:08:56.614Z,17.80
2022-10-28T21:11:25.199Z,17.90
2022-10-28T21:13:54.525Z,18.00
2022-10-28T21:16:22.469Z,18.10
2022-10-28T21:18:50.186Z,18.10
2022-10-28T21:21:18.786Z,17.90
2022-10-28T21:23:46.083Z,17.70
2022-10-28T21:26:13.487Z,17.70
2022-10-28T21:28:43.860Z,17.70
2022-10-28T21:31:14.606Z,17.80
2022-10-28T21:33:42.846Z,17.90
2022-10-28T21:36:12.452Z,18.00
2022-10-28T21:38:39.678Z,18.10
2022-10-28T21:41:17.823Z,18.20
2022-10-28T21:43:49.529Z,18.30
2022-10-28T21:46:17.806Z,18.30
2022-10-28T21:48:45.035Z,18.30
2022-10-28T21:51:15.182Z,18.30
2022-10-28T21:53:43.800Z,18.40
2022-10-28T21:56:19.445Z,18.30
2022-10-28T21:58:48.269Z,18.30
2022-10-28T22:01:18.835Z,18.30
2022-10-28T22:03:45.987Z,18.30
2022-10-28T22:06:13.366Z,18.40
2022-10-28T22:08:40.768Z,18.40
2022-10-28T22:11:18.814Z,18.40
2022-10-28T22:13:46.122Z,18.40
2022-10-28T22:16:17.813Z,18.50
2022-10-28T22:18:45.586Z,18.50
2022-10-28T22:21:18.047Z,18.70
2022-10-28T22:23:45.254Z,18.60
2022-10-28T22:26:23.975Z,18.50
2022-10-28T22:28:51.881Z,18.20
2022-10-28T22:31:21.185Z,18.00
2022-10-28T22:33:48.608Z,18.00
2022-10-28T22:36:21.160Z,18.30
2022-10-28T22:38:48.659Z,18.40
2022-10-28T22:41:24.165Z,18.60
2022-10-28T22:43:59.316Z,18.50
2022-10-28T22:46:30.755Z,18.40
2022-10-28T22:48:58.867Z,18.40
2022-10-28T22:51:25.824Z,18.30
2022-10-28T22:53:52.951Z,18.30
2022-10-28T22:56:22.257Z,18.30
2022-10-28T22:58:53.782Z,18.30
2022-10-28T23:01:21.210Z,18.20
2022-10-28T23:03:49.926Z,18.10
2022-10-28T23:06:18.803Z,18.30
2022-10-28T23:08:46.348Z,18.10
2022-10-28T23:11:14.624Z,18.00
2022-10-28T23:13:41.500Z,17.90
2022-10-28T23:16:13.563Z,18.00
2022-10-28T23:18:41.083Z,18.00
2022-10-28T23:21:16.690Z,18.00
2022-10-28T23:23:49.744Z,18.00
2022-10-28T23:26:20.191Z,18.00
2022-10-28T23:28:52.034Z,17.80
2022-10-28T23:31:20.135Z,17.60
2022-10-28T23:33:47.428Z,17.70
2022-10-28T23:36:15.383Z,17.30
2022-10-28T23:38:42.957Z,16.90
2022-10-28T23:41:18.665Z,16.90
2022-10-28T23:43:47.265Z,16.90
2022-10-28T23:46:14.129Z,16.90
2022-10-28T23:48:41.128Z,17.00
2022-10-28T23:51:08.224Z,17.20
2022-10-28T23:53:35.264Z,17.00
2022-10-28T23:56:02.292Z,16.80
2022-10-28T23:58:29.290Z,16.60
